createdAt,value
2023-05-09T00:00:33.753Z,45
2023-05-09T00:15:32.827Z,45
2023-05-09T00:30:32.491Z,45
2023-05-09T00:45:32.797Z,44
2023-05-09T01:00:33.836Z,44
2023-05-09T01:15:32.648Z,44
2023-05-09T01:30:32.887Z,44
2023-05-09T01:45:32.239Z,43
2023-05-09T02:00:33.408Z,43
2023-05-09T02:15:32.247Z,43
2023-05-09T02:30:32.218Z,43
2023-05-09T02:45:32.797Z,43
2023-05-09T03:00:32.511Z,43
2023-05-09T03:15:32.291Z,42
2023-05-09T03:30:32.708Z,42
2023-05-09T03:45:31.945Z,42
2023-05-09T04:00:33.667Z,42
2023-05-09T04:15:32.766Z,42
2023-05-09T04:30:33.069Z,41
2023-05-09T04:45:32.604Z,41
2023-05-09T05:00:33.709Z,41
2023-05-09T05:15:32.544Z,41
2023-05-09T05:30:34.659Z,41
2023-05-09T05:45:32.774Z,42
2023-05-09T06:00:33.505Z,42
2023-05-09T06:15:32.972Z,42
2023-05-09T06:30:33.308Z,42
2023-05-09T06:45:33.783Z,42
2023-05-09T07:00:33.349Z,43
2023-05-09T07:15:42.804Z,43
2023-05-09T07:30:33.532Z,43
2023-05-09T07:45:32.733Z,43
2023-05-09T08:00:32.809Z,44
2023-05-09T08:15:33.329Z,44
2023-05-09T08:30:33.566Z,45
2023-05-09T08:45:32.903Z,45
2023-05-09T09:00:33.334Z,45
2023-05-09T09:15:32.115Z,46
2023-05-09T09:30:33.222Z,46
2023-05-09T09:45:32.080Z,46
2023-05-09T10:00:33.491Z,46
2023-05-09T15:45:32.523Z,44
2023-05-09T16:00:33.466Z,44
2023-05-09T16:15:32.892Z,44
2023-05-09T16:30:34.178Z,44
2023-05-09T16:45:32.481Z,43
2023-05-09T17:00:33.216Z,43
2023-05-09T17:15:32.960Z,43
2023-05-09T17:30:33.364Z,43
2023-05-09T17:45:33.631Z,44
2023-05-09T18:00:32.978Z,44
2023-05-09T18:15:32.423Z,44
2023-05-09T18:30:33.313Z,44
2023-05-09T18:45:32.076Z,44
2023-05-09T19:00:32.928Z,44
2023-05-09T19:15:32.331Z,44
2023-05-09T19:30:33.521Z,44
2023-05-09T19:45:32.797Z,44
2023-05-09T20:00:33.308Z,44
2023-05-09T20:15:32.257Z,44
2023-05-09T20:30:33.136Z,44
2023-05-09T20:45:33.005Z,45
2023-05-09T21:00:33.470Z,45
2023-05-09T21:15:32.229Z,46
2023-05-09T21:30:32.563Z,47
2023-05-09T21:45:32.030Z,47
2023-05-09T22:00:33.470Z,47
2023-05-09T22:15:32.557Z,48
2023-05-09T22:30:32.979Z,48
2023-05-09T22:45:32.937Z,48
2023-05-09T23:00:32.266Z,48
2023-05-09T23:15:32.806Z,49
2023-05-09T23:30:33.364Z,49
2023-05-09T23:45:32.887Z,49
